createdAt,value
2023-03-19T00:00:39.355Z,9.40
2023-03-19T00:03:06.461Z,9.40
2023-03-19T00:05:33.649Z,9.30
2023-03-19T00:08:00.821Z,9.30
2023-03-19T00:10:27.812Z,9.20
2023-03-19T00:12:55.636Z,9.10
2023-03-19T00:15:22.836Z,9.10
2023-03-19T00:17:49.750Z,9.00
2023-03-19T00:20:18.282Z,9.10
2023-03-19T00:22:45.607Z,9.00
2023-03-19T00:25:12.775Z,9.00
2023-03-19T00:27:39.786Z,9.00
2023-03-19T00:30:08.061Z,9.00
2023-03-19T00:32:36.657Z,9.00
2023-03-19T00:35:06.402Z,9.00
2023-03-19T00:37:34.443Z,9.00
2023-03-19T00:40:01.816Z,9.10
2023-03-19T00:42:28.773Z,9.00
2023-03-19T00:44:55.952Z,9.00
2023-03-19T00:47:24.994Z,9.00
2023-03-19T00:49:51.878Z,9.00
2023-03-19T00:52:18.841Z,8.90
2023-03-19T00:54:46.163Z,8.90
2023-03-19T00:57:13.181Z,8.90
2023-03-19T00:59:41.347Z,8.90
2023-03-19T01:02:08.336Z,8.90
2023-03-19T01:04:35.535Z,8.90
2023-03-19T01:07:02.491Z,8.90
2023-03-19T01:09:29.858Z,8.90
2023-03-19T01:11:57.021Z,9.00
2023-03-19T01:14:23.995Z,9.00
2023-03-19T01:16:51.195Z,9.00
2023-03-19T01:19:18.124Z,9.00
2023-03-19T01:21:46.603Z,9.10
2023-03-19T01:24:17.568Z,9.10
2023-03-19T01:26:47.820Z,9.10
2023-03-19T01:29:32.168Z,9.20
2023-03-19T01:32:07.555Z,9.20
2023-03-19T01:34:54.156Z,9.20
2023-03-19T01:37:21.387Z,9.30
2023-03-19T01:39:48.852Z,9.30
2023-03-19T01:42:16.834Z,9.30
2023-03-19T01:45:37.165Z,9.30
2023-03-19T01:48:40.744Z,9.30
2023-03-19T01:51:16.234Z,9.30
2023-03-19T01:53:58.931Z,9.30
2023-03-19T01:56:36.892Z,9.30
2023-03-19T01:59:37.954Z,9.30
2023-03-19T02:02:44.833Z,9.40
2023-03-19T02:05:37.978Z,9.30
2023-03-19T02:08:11.448Z,9.30
2023-03-19T02:10:40.614Z,9.40
2023-03-19T02:13:07.602Z,9.40
2023-03-19T02:15:34.541Z,9.40
2023-03-19T02:18:01.629Z,9.40
2023-03-19T02:20:48.324Z,9.40
2023-03-19T02:23:30.372Z,9.40
2023-03-19T02:26:11.619Z,9.40
2023-03-19T02:28:42.492Z,9.40
2023-03-19T02:31:11.093Z,9.40
2023-03-19T02:33:38.413Z,9.30
2023-03-19T02:36:10.325Z,9.30
2023-03-19T02:38:40.891Z,9.30
2023-03-19T02:41:09.013Z,9.20
2023-03-19T02:43:38.873Z,9.20
2023-03-19T02:46:09.714Z,9.20
2023-03-19T02:48:37.652Z,9.20
2023-03-19T02:51:05.667Z,9.20
2023-03-19T02:53:34.746Z,9.20
2023-03-19T02:56:01.828Z,9.20
2023-03-19T02:58:28.854Z,9.20
2023-03-19T03:00:55.920Z,9.10
2023-03-19T03:03:23.001Z,9.10
2023-03-19T03:05:50.000Z,9.00
2023-03-19T03:08:16.916Z,9.00
2023-03-19T03:10:43.922Z,9.00
2023-03-19T03:13:12.272Z,9.00
2023-03-19T03:15:39.443Z,9.00
2023-03-19T03:18:06.441Z,9.00
2023-03-19T03:20:33.619Z,9.10
2023-03-19T03:23:00.976Z,9.10
2023-03-19T03:25:28.311Z,9.10
2023-03-19T03:27:55.435Z,9.10
2023-03-19T03:30:22.881Z,9.10
2023-03-19T03:32:50.084Z,9.20
2023-03-19T03:35:21.895Z,9.20
2023-03-19T03:37:50.413Z,9.20
2023-03-19T03:40:17.675Z,9.20
2023-03-19T03:42:44.992Z,9.30
2023-03-19T03:45:13.088Z,9.30
2023-03-19T03:47:42.224Z,9.30
2023-03-19T03:50:11.102Z,9.40
2023-03-19T03:52:39.370Z,9.40
2023-03-19T03:55:07.548Z,9.40
2023-03-19T03:57:34.887Z,9.40
2023-03-19T04:00:01.918Z,9.40
2023-03-19T04:02:29.073Z,9.50
2023-03-19T04:04:56.291Z,9.50
2023-03-19T04:07:23.258Z,9.50
2023-03-19T04:09:57.620Z,9.50
2023-03-19T04:12:26.291Z,9.50
2023-03-19T04:14:53.502Z,9.40
2023-03-19T04:17:20.523Z,9.50
2023-03-19T04:19:47.457Z,9.40
2023-03-19T04:22:14.609Z,9.50
2023-03-19T04:24:41.893Z,9.40
2023-03-19T04:27:09.094Z,9.50
2023-03-19T04:29:37.890Z,9.50
2023-03-19T04:32:05.558Z,9.50
2023-03-19T04:34:32.625Z,9.50
2023-03-19T04:36:59.627Z,9.50
2023-03-19T04:39:27.279Z,9.50
2023-03-19T04:41:54.218Z,9.50
2023-03-19T04:44:39.098Z,9.50
2023-03-19T04:47:06.582Z,9.50
2023-03-19T04:49:47.088Z,9.60
2023-03-19T04:52:14.666Z,9.60
2023-03-19T04:54:41.644Z,9.60
2023-03-19T04:57:09.151Z,9.60
2023-03-19T04:59:38.685Z,9.60
2023-03-19T05:02:06.160Z,9.60
2023-03-19T05:04:35.388Z,9.60
2023-03-19T05:07:07.433Z,9.60
2023-03-19T05:09:35.842Z,9.60
2023-03-19T05:12:02.760Z,9.50
2023-03-19T05:14:35.381Z,9.30
2023-03-19T05:17:11.278Z,9.20
2023-03-19T05:19:53.899Z,9.10
2023-03-19T05:22:21.059Z,9.00
2023-03-19T05:24:48.090Z,8.90
2023-03-19T05:27:15.237Z,8.80
2023-03-19T05:30:04.478Z,8.80
2023-03-19T05:32:58.863Z,8.70
2023-03-19T05:35:39.339Z,8.60
2023-03-19T05:38:13.976Z,8.60
2023-03-19T05:40:43.943Z,8.60
2023-03-19T05:43:24.258Z,8.60
2023-03-19T05:45:52.806Z,8.70
2023-03-19T05:48:23.584Z,8.70
2023-03-19T05:50:52.636Z,8.80
2023-03-19T05:53:23.261Z,8.80
2023-03-19T05:56:13.234Z,8.80
2023-03-19T05:58:52.989Z,8.90
2023-03-19T06:01:25.664Z,9.00
2023-03-19T06:03:52.880Z,9.00
2023-03-19T06:06:19.844Z,9.10
2023-03-19T06:08:51.709Z,9.10
2023-03-19T06:11:40.578Z,9.20
2023-03-19T06:14:26.639Z,9.30
2023-03-19T06:17:13.773Z,9.40
2023-03-19T06:19:40.845Z,9.50
2023-03-19T06:22:08.984Z,9.60
2023-03-19T06:24:36.943Z,9.60
2023-03-19T06:27:04.303Z,9.60
2023-03-19T06:29:31.723Z,9.70
2023-03-19T06:32:07.935Z,9.80
2023-03-19T06:34:41.655Z,9.90
2023-03-19T06:37:09.077Z,10.00
2023-03-19T06:39:36.046Z,10.10
2023-03-19T06:42:03.143Z,10.20
2023-03-19T06:44:30.124Z,10.30
2023-03-19T06:46:57.239Z,10.40
2023-03-19T06:49:24.349Z,10.50
2023-03-19T06:51:51.591Z,10.60
2023-03-19T06:54:18.628Z,10.70
2023-03-19T06:56:46.236Z,10.80
2023-03-19T06:59:13.220Z,11.00
2023-03-19T07:01:43.220Z,11.10
2023-03-19T07:04:11.286Z,11.30
2023-03-19T07:06:38.382Z,11.40
2023-03-19T07:09:05.552Z,11.50
2023-03-19T07:11:35.637Z,11.70
2023-03-19T07:14:03.634Z,12.10
2023-03-19T07:16:30.951Z,12.40
2023-03-19T07:18:58.041Z,12.60
2023-03-19T07:21:26.892Z,13.00
2023-03-19T07:23:54.025Z,13.30
2023-03-19T07:26:21.085Z,13.70
2023-03-19T07:28:48.491Z,13.90
2023-03-19T07:31:16.948Z,14.20
2023-03-19T07:33:44.069Z,14.40
2023-03-19T07:36:11.324Z,14.70
2023-03-19T07:38:38.205Z,14.90
2023-03-19T07:41:05.309Z,15.00
2023-03-19T07:43:32.680Z,15.20
2023-03-19T07:46:00.839Z,15.60
2023-03-19T07:48:28.058Z,16.10
2023-03-19T07:50:55.184Z,16.60
2023-03-19T07:53:22.196Z,16.90
2023-03-19T07:55:49.246Z,17.00
2023-03-19T07:58:17.074Z,17.20
2023-03-19T08:00:45.217Z,17.60
2023-03-19T08:03:12.629Z,17.80
2023-03-19T08:05:39.815Z,17.90
2023-03-19T08:08:06.777Z,18.00
2023-03-19T08:10:36.266Z,18.10
2023-03-19T08:13:05.190Z,18.30
2023-03-19T08:15:32.590Z,18.40
2023-03-19T08:18:04.954Z,18.30
2023-03-19T08:20:33.262Z,18.40
2023-03-19T08:23:00.367Z,18.40
2023-03-19T08:25:27.604Z,18.40
2023-03-19T08:27:54.942Z,18.50
2023-03-19T08:30:22.583Z,18.60
2023-03-19T08:32:50.575Z,18.90
2023-03-19T08:35:17.644Z,19.20
2023-03-19T08:37:44.567Z,19.30
2023-03-19T08:40:12.003Z,19.50
2023-03-19T08:42:44.438Z,19.60
2023-03-19T08:45:13.853Z,19.80
2023-03-19T08:47:41.283Z,19.80
2023-03-19T08:50:08.904Z,19.70
2023-03-19T08:52:36.122Z,19.70
2023-03-19T08:55:03.712Z,19.70
2023-03-19T08:57:32.645Z,19.80
2023-03-19T09:00:00.198Z,19.80
2023-03-19T09:02:27.448Z,19.70
2023-03-19T09:04:54.603Z,19.50
2023-03-19T09:07:21.556Z,19.20
2023-03-19T09:09:49.420Z,18.80
2023-03-19T09:12:17.636Z,18.60
2023-03-19T09:14:44.884Z,18.60
2023-03-19T09:17:13.466Z,18.90
2023-03-19T09:19:40.886Z,19.40
2023-03-19T09:22:07.823Z,19.70
2023-03-19T09:24:34.825Z,20.00
2023-03-19T09:27:01.642Z,20.40
2023-03-19T09:29:28.791Z,20.70
2023-03-19T09:31:55.701Z,21.10
2023-03-19T09:34:22.724Z,21.20
2023-03-19T09:36:50.015Z,21.20
2023-03-19T09:39:17.141Z,21.10
2023-03-19T09:42:03.997Z,21.00
2023-03-19T09:44:38.170Z,20.70
2023-03-19T09:47:10.864Z,20.80
2023-03-19T09:49:44.565Z,20.90
2023-03-19T09:52:17.548Z,21.10
2023-03-19T09:54:49.871Z,20.90
2023-03-19T09:57:17.566Z,20.60
2023-03-19T09:59:44.495Z,20.00
2023-03-19T10:02:30.076Z,19.60
2023-03-19T10:04:58.608Z,19.10
2023-03-19T10:07:40.422Z,18.60
2023-03-19T10:10:14.976Z,18.10
2023-03-19T10:12:48.967Z,17.80
2023-03-19T10:15:28.535Z,17.60
2023-03-19T10:18:11.262Z,17.50
2023-03-19T10:20:56.705Z,17.50
2023-03-19T10:23:27.591Z,17.50
2023-03-19T10:25:58.580Z,17.80
2023-03-19T10:28:26.966Z,18.20
2023-03-19T10:31:21.273Z,18.50
2023-03-19T10:33:50.987Z,18.90
2023-03-19T10:36:20.266Z,19.20
2023-03-19T10:38:47.539Z,19.80
2023-03-19T10:41:29.647Z,20.60
2023-03-19T10:44:01.492Z,21.00
2023-03-19T10:46:28.416Z,21.60
2023-03-19T10:48:55.397Z,22.30
2023-03-19T10:51:26.806Z,22.90
2023-03-19T10:53:55.613Z,23.50
2023-03-19T10:56:24.307Z,23.90
2023-03-19T10:59:07.112Z,24.40
2023-03-19T11:01:35.598Z,25.20
2023-03-19T11:04:11.361Z,25.60
2023-03-19T11:06:38.525Z,25.80
2023-03-19T11:09:08.304Z,26.30
2023-03-19T11:11:37.466Z,26.80
2023-03-19T11:14:27.507Z,26.80
2023-03-19T11:16:57.657Z,26.60
2023-03-19T11:19:30.808Z,26.70
2023-03-19T11:22:10.087Z,26.70
2023-03-19T11:24:38.206Z,26.90
2023-03-19T11:27:05.400Z,27.10
2023-03-19T11:29:32.406Z,27.30
2023-03-19T11:32:20.331Z,27.40
2023-03-19T11:34:57.261Z,27.30
2023-03-19T11:37:30.630Z,26.80
2023-03-19T11:40:20.518Z,26.40
2023-03-19T11:42:50.352Z,26.40
2023-03-19T11:45:20.779Z,26.10
2023-03-19T11:48:10.864Z,26.20
2023-03-19T11:50:41.426Z,26.40
2023-03-19T11:53:08.190Z,26.50
2023-03-19T11:55:38.202Z,26.40
2023-03-19T11:58:08.017Z,26.50
2023-03-19T12:00:48.248Z,26.70
2023-03-19T12:03:17.855Z,27.30
2023-03-19T12:06:00.942Z,27.10
2023-03-19T12:08:39.556Z,26.90
2023-03-19T12:11:22.140Z,27.40
2023-03-19T12:13:48.910Z,27.80
2023-03-19T12:16:16.161Z,28.50
2023-03-19T12:18:59.749Z,28.60
2023-03-19T12:21:44.766Z,28.30
2023-03-19T12:24:30.373Z,28.60
2023-03-19T12:27:19.907Z,29.00
2023-03-19T12:30:03.648Z,28.80
2023-03-19T12:32:30.413Z,29.10
2023-03-19T12:35:03.340Z,29.50
2023-03-19T12:37:33.073Z,29.90
2023-03-19T12:40:15.228Z,29.80
2023-03-19T12:42:42.303Z,29.90
2023-03-19T12:45:24.670Z,29.70
2023-03-19T12:47:54.267Z,29.80
2023-03-19T12:50:21.720Z,29.70
2023-03-19T12:52:50.910Z,29.70
2023-03-19T12:55:36.550Z,29.70
2023-03-19T12:58:14.067Z,29.70
2023-03-19T13:00:46.632Z,29.10
2023-03-19T13:03:13.451Z,28.50
2023-03-19T13:05:45.986Z,28.10
2023-03-19T13:08:32.656Z,27.60
2023-03-19T13:11:00.646Z,26.30
2023-03-19T13:13:37.373Z,24.90
2023-03-19T13:16:10.590Z,23.60
2023-03-19T13:18:57.354Z,22.30
2023-03-19T13:21:27.998Z,21.60
2023-03-19T13:24:12.790Z,20.60
2023-03-19T13:26:40.138Z,20.10
2023-03-19T13:29:09.186Z,20.00
2023-03-19T13:31:36.877Z,19.80
2023-03-19T13:34:07.990Z,19.90
2023-03-19T13:36:39.351Z,20.40
2023-03-19T13:39:12.503Z,20.90
2023-03-19T13:41:39.769Z,21.20
2023-03-19T13:44:26.123Z,21.40
2023-03-19T13:46:53.540Z,21.80
2023-03-19T13:49:25.418Z,21.80
2023-03-19T13:51:54.926Z,21.70
2023-03-19T13:54:32.512Z,21.90
2023-03-19T13:57:02.394Z,21.80
2023-03-19T13:59:29.271Z,21.10
2023-03-19T14:01:56.699Z,20.60
2023-03-19T14:04:30.639Z,20.50
2023-03-19T14:07:11.673Z,20.50
2023-03-19T14:09:43.149Z,20.50
2023-03-19T14:12:09.940Z,20.40
2023-03-19T14:14:45.614Z,20.10
2023-03-19T14:17:19.483Z,19.70
2023-03-19T14:19:46.961Z,19.30
2023-03-19T14:22:16.869Z,19.10
2023-03-19T14:24:57.027Z,19.00
2023-03-19T14:27:29.572Z,18.80
2023-03-19T14:30:00.187Z,18.60
2023-03-19T14:32:41.835Z,18.50
2023-03-19T14:35:13.083Z,18.50
2023-03-19T14:37:42.686Z,18.40
2023-03-19T14:40:22.628Z,18.40
2023-03-19T14:43:08.306Z,18.20
2023-03-19T14:45:38.122Z,17.90
2023-03-19T14:48:10.700Z,17.70
2023-03-19T14:50:55.977Z,17.70
2023-03-19T14:53:32.486Z,17.70
2023-03-19T14:56:02.858Z,17.80
2023-03-19T14:58:29.699Z,17.80
2023-03-19T15:00:56.543Z,17.70
2023-03-19T15:03:39.289Z,17.70
2023-03-19T15:06:07.773Z,17.70
2023-03-19T15:08:37.263Z,17.80
2023-03-19T15:11:36.406Z,17.70
2023-03-19T15:14:03.509Z,17.70
2023-03-19T15:16:33.131Z,17.50
2023-03-19T15:19:00.250Z,17.30
2023-03-19T15:21:28.956Z,17.20
2023-03-19T15:23:55.905Z,17.10
2023-03-19T15:26:29.929Z,17.10
2023-03-19T15:28:58.010Z,17.10
2023-03-19T15:31:49.647Z,17.00
2023-03-19T15:34:28.346Z,16.90
2023-03-19T15:36:57.612Z,16.70
2023-03-19T15:39:27.242Z,16.60
2023-03-19T15:41:54.997Z,16.40
2023-03-19T15:44:26.076Z,16.40
2023-03-19T15:46:53.390Z,16.40
2023-03-19T15:49:26.068Z,16.30
2023-03-19T15:51:55.317Z,16.20
2023-03-19T15:54:22.509Z,16.20
2023-03-19T15:56:50.975Z,16.10
2023-03-19T15:59:18.883Z,16.00
2023-03-19T16:01:45.978Z,16.10
2023-03-19T16:04:16.275Z,16.00
2023-03-19T16:06:43.191Z,16.00
2023-03-19T16:09:19.245Z,16.00
2023-03-19T16:11:46.431Z,15.90
2023-03-19T16:14:19.238Z,15.80
2023-03-19T16:16:46.772Z,15.70
2023-03-19T16:19:32.300Z,15.70
2023-03-19T16:22:00.733Z,15.60
2023-03-19T16:24:34.136Z,15.50
2023-03-19T16:27:07.064Z,15.50
2023-03-19T16:29:46.010Z,15.50
2023-03-19T16:32:15.714Z,15.40
2023-03-19T16:34:50.152Z,15.30
2023-03-19T16:37:31.977Z,15.30
2023-03-19T16:40:29.053Z,15.30
2023-03-19T16:43:07.272Z,15.20
2023-03-19T16:45:35.281Z,15.20
2023-03-19T16:48:06.185Z,15.10
2023-03-19T16:50:41.188Z,15.10
2023-03-19T16:53:24.566Z,15.10
2023-03-19T16:55:53.247Z,15.00
2023-03-19T16:58:26.157Z,15.00
2023-03-19T17:00:53.354Z,15.00
2023-03-19T17:03:20.297Z,15.00
2023-03-19T17:05:48.466Z,15.00
2023-03-19T17:08:16.033Z,14.90
2023-03-19T17:10:48.547Z,14.90
2023-03-19T17:13:28.221Z,14.90
2023-03-19T17:15:59.563Z,14.90
2023-03-19T17:18:33.578Z,14.80
2023-03-19T17:21:03.588Z,14.80
2023-03-19T17:23:32.435Z,14.70
2023-03-19T17:25:59.818Z,14.70
2023-03-19T17:28:26.814Z,14.60
2023-03-19T17:30:53.780Z,14.60
2023-03-19T17:33:24.361Z,14.70
2023-03-19T17:35:53.086Z,14.60
2023-03-19T17:38:21.819Z,14.60
2023-03-19T17:40:48.905Z,14.60
2023-03-19T17:43:15.864Z,14.60
2023-03-19T17:45:46.695Z,14.60
2023-03-19T17:48:21.390Z,14.60
2023-03-19T17:50:49.831Z,14.60
2023-03-19T17:53:18.657Z,14.60
2023-03-19T17:55:46.760Z,14.60
2023-03-19T17:58:19.528Z,14.60
2023-03-19T18:00:48.293Z,14.60
2023-03-19T18:03:18.619Z,14.60
2023-03-19T18:05:45.757Z,14.60
2023-03-19T18:08:17.999Z,14.60
2023-03-19T18:10:45.867Z,14.60
2023-03-19T18:13:12.803Z,14.50
2023-03-19T18:15:42.566Z,14.50
2023-03-19T18:18:21.428Z,14.50
2023-03-19T18:20:49.100Z,14.40
2023-03-19T18:23:16.819Z,14.40
2023-03-19T18:25:45.051Z,14.40
2023-03-19T18:28:12.086Z,14.40
2023-03-19T18:30:40.654Z,14.40
2023-03-19T18:33:13.753Z,14.30
2023-03-19T18:35:44.985Z,14.30
2023-03-19T18:38:18.289Z,14.30
2023-03-19T18:40:45.934Z,14.30
2023-03-19T18:43:15.944Z,14.20
2023-03-19T18:45:45.706Z,14.20
2023-03-19T18:48:38.748Z,14.10
2023-03-19T18:51:06.068Z,14.10
2023-03-19T18:53:33.098Z,14.10
2023-03-19T18:56:02.306Z,14.00
2023-03-19T18:58:29.392Z,14.00
2023-03-19T19:00:57.752Z,14.00
2023-03-19T19:03:29.531Z,13.90
2023-03-19T19:05:57.388Z,13.70
2023-03-19T19:08:26.709Z,13.60
2023-03-19T19:10:58.826Z,13.50
2023-03-19T19:13:29.351Z,13.40
2023-03-19T19:15:56.302Z,13.30
2023-03-19T19:18:30.581Z,13.30
2023-03-19T19:20:58.590Z,13.20
2023-03-19T19:23:30.196Z,13.20
2023-03-19T19:25:57.278Z,13.20
2023-03-19T19:28:30.693Z,13.10
2023-03-19T19:30:59.944Z,13.10
2023-03-19T19:33:31.732Z,13.00
2023-03-19T19:35:58.968Z,13.00
2023-03-19T19:38:26.024Z,13.00
2023-03-19T19:40:56.263Z,12.90
2023-03-19T19:43:25.619Z,12.90
2023-03-19T19:45:54.600Z,12.90
2023-03-19T19:48:27.409Z,13.00
2023-03-19T19:50:56.129Z,13.10
2023-03-19T19:53:29.504Z,13.10
2023-03-19T19:55:56.640Z,13.10
2023-03-19T19:58:33.098Z,13.10
2023-03-19T20:01:04.199Z,13.10
2023-03-19T20:03:33.309Z,13.10
2023-03-19T20:06:01.534Z,13.10
2023-03-19T20:08:28.883Z,13.10
2023-03-19T20:10:56.720Z,13.10
2023-03-19T20:13:29.105Z,13.10
2023-03-19T20:15:58.209Z,13.10
2023-03-19T20:18:30.947Z,13.10
2023-03-19T20:20:59.332Z,13.00
2023-03-19T20:23:26.640Z,13.00
2023-03-19T20:25:54.948Z,13.00
2023-03-19T20:28:32.523Z,12.90
2023-03-19T20:31:00.807Z,12.90
2023-03-19T20:33:28.797Z,12.80
2023-03-19T20:35:55.856Z,12.80
2023-03-19T20:38:23.045Z,12.80
2023-03-19T20:40:53.942Z,12.70
2023-03-19T20:43:30.865Z,12.80
2023-03-19T20:46:01.887Z,12.70
2023-03-19T20:48:29.111Z,12.70
2023-03-19T20:50:56.185Z,12.70
2023-03-19T20:53:23.249Z,12.60
2023-03-19T20:55:51.003Z,12.60
2023-03-19T20:58:28.334Z,12.60
2023-03-19T21:00:57.898Z,12.60
2023-03-19T21:03:27.264Z,12.50
2023-03-19T21:06:02.050Z,12.40
2023-03-19T21:08:34.270Z,12.40
2023-03-19T21:11:02.341Z,12.40
2023-03-19T21:13:29.906Z,12.40
2023-03-19T21:15:56.944Z,12.40
2023-03-19T21:18:24.181Z,12.40
2023-03-19T21:20:54.759Z,12.40
2023-03-19T21:23:31.879Z,12.40
2023-03-19T21:26:03.960Z,12.30
2023-03-19T21:28:49.463Z,12.30
2023-03-19T21:31:18.995Z,12.30
2023-03-19T21:33:47.622Z,12.20
2023-03-19T21:36:15.128Z,12.10
2023-03-19T21:38:42.533Z,12.10
2023-03-19T21:41:21.821Z,12.00
2023-03-19T21:43:53.984Z,12.10
2023-03-19T21:46:28.452Z,12.00
2023-03-19T21:48:56.848Z,11.90
2023-03-19T21:51:25.202Z,11.90
2023-03-19T21:53:52.399Z,11.90
2023-03-19T21:56:19.299Z,11.80
2023-03-19T21:58:46.799Z,11.80
2023-03-19T22:01:23.672Z,11.70
2023-03-19T22:03:55.019Z,11.70
2023-03-19T22:06:22.601Z,11.60
2023-03-19T22:08:51.049Z,11.50
2023-03-19T22:11:20.609Z,11.50
2023-03-19T22:13:48.446Z,11.40
2023-03-19T22:16:24.034Z,11.30
2023-03-19T22:18:52.194Z,11.20
2023-03-19T22:21:21.999Z,11.20
2023-03-19T22:23:49.454Z,11.20
2023-03-19T22:26:25.660Z,11.20
2023-03-19T22:28:53.121Z,11.20
2023-03-19T22:31:20.181Z,11.10
2023-03-19T22:33:48.745Z,11.10
2023-03-19T22:36:15.875Z,11.10
2023-03-19T22:38:44.948Z,11.00
2023-03-19T22:41:21.963Z,11.00
2023-03-19T22:43:49.443Z,10.90
2023-03-19T22:46:19.698Z,10.90
2023-03-19T22:48:50.173Z,10.80
2023-03-19T22:51:19.998Z,10.80
2023-03-19T22:53:47.659Z,10.70
2023-03-19T22:56:16.145Z,10.70
2023-03-19T22:58:43.843Z,10.70
2023-03-19T23:01:29.502Z,10.70
2023-03-19T23:03:57.149Z,10.70
2023-03-19T23:06:30.598Z,10.70
2023-03-19T23:08:58.286Z,10.60
2023-03-19T23:11:25.606Z,10.60
2023-03-19T23:13:54.706Z,10.60
2023-03-19T23:16:24.717Z,10.60
2023-03-19T23:18:52.275Z,10.50
2023-03-19T23:21:20.929Z,10.50
2023-03-19T23:23:47.915Z,10.50
2023-03-19T23:26:25.294Z,10.50
2023-03-19T23:28:53.032Z,10.50
2023-03-19T23:31:20.113Z,10.40
2023-03-19T23:33:47.304Z,10.40
2023-03-19T23:36:14.403Z,10.40
2023-03-19T23:38:41.596Z,10.40
2023-03-19T23:41:24.249Z,10.30
2023-03-19T23:43:52.813Z,10.30
2023-03-19T23:46:21.144Z,10.30
2023-03-19T23:48:48.306Z,10.30
2023-03-19T23:51:16.145Z,10.20
2023-03-19T23:53:43.852Z,10.20
2023-03-19T23:56:26.046Z,10.20
2023-03-19T23:58:55.699Z,10.20
